Lindley, New York
Current Conditions -  °F | °C
As of 4:53 AM on Monday 26 Jan 2015 (Local Time) from KELM Reporting Station
Overcast Overcast  
Wind Chill:   Ceiling: 4100
Heat Index: 14°   Visibility: 10mi
Dew Point: -3°   Wind: 9mph
Humidity: 47%   Direction: 80°E
Pressure: 29.94"   Gusts: NA
Location:  42.03°N, 77.14°W
Report Text: KELM 260953Z AUTO 08008KT 10SM OVC041 M10/M19 A2994 RMK AO2 SLP156 T11001194
Loading
Personal Weather Stations






























Interactive Weather Map New forecast layout! Learn more

10-Day Weather Forecast

Advertisements
Track Severe Weather on mobile